Tiempo atmosférico en la estación meteorológica de Almendralejo, Badajoz (371 m.)



Fecha
DESCASC
Temp. máxima en grados centígrados (hora)
DESCASC
Temp. mínima en grados centígrados (hora)
DESCASC
Temp. media en grados centígrados
DESCASC
Racha de viento máxima en m/sg (hora)
DESCASC
Velocidad máxima media en intervalos de 10 minutos(hora)
DESCASC
Precipitaciones diarias en mm
DESCASC
Precipitaciones de 00:00 a 06:00 en mm
DESCASC
Precipitaciones de 06:00 a 12:00 en mm
DESCASC
Precipitaciones de 12:00 a 18:00 en mm
DESCASC
Precipitaciones de 18:00 a 24:00 en mm
DESCASC
23-06-2019 32.5 (16:50) 14.9 (07:10) 23.7 9.44 (21:20) 6.39 (21:20) 0 0 0 0 0
22-06-2019 34.1 (17:20) 14.9 (06:50) 24.5 10.28 (19:20) 6.11 (19:30) 0 0 0 0 0
21-06-2019 29.2 (19:10) 12.4 (07:00) 20.8 9.72 (00:40) 6.11 (01:10) 0 0 0 0 0
20-06-2019 27.7 (17:00) 15.9 (00:00) 21.8 10.83 (23:10) 6.94 (21:20) 0 0 0 0 0
19-06-2019 26.2 (17:50) 15.8 (00:00) 21 11.11 (18:10) 5 (00:10) 0 0 0 0 0
18-06-2019 28.1 (16:10) 13.4 (00:00) 20.8 12.22 (14:50) 7.78 (17:00) 0 0 0 0 0
17-06-2019 32.1 (17:20) 12.5 (00:00) 22.3 10.28 (17:00) 6.67 (20:30) 0 0 0 0 0
16-06-2019 30.8 (17:20) 13 (00:00) 21.9 10.56 (19:20) 6.11 (19:20) 0 0 0 0 0
15-06-2019 25.9 (19:20) 9.3 (00:00) 17.6 7.5 (16:00) 3.89 (18:00) 0 0 0 0 0
14-06-2019 21.8 (18:20) 10.2 (00:00) 16 13.06 (13:50) 6.67 (13:10) 0 0 0 0 0
13-06-2019 26.8 (16:40) 9.8 (00:00) 18.3 10.83 (18:00) 6.39 (17:50) 0 0 0 0 0
12-06-2019 28.9 (19:00) 9.8 (00:00) 19.3 10.28 (19:30) 6.11 (21:30) 0 0 0 0 0
11-06-2019 25.5 (17:20) 11.2 (00:00) 18.3 12.5 (15:10) 7.78 (14:00) 0 0 0 0 0
10-06-2019 27.2 (17:30) 11.8 (00:00) 19.5 11.67 (22:30) 7.78 (22:50) 0 0 0 0 0
09-06-2019 26.8 (17:30) 10.6 (00:00) 18.7 11.11 (20:50) 7.22 (19:40) 0 0 0 0 0
08-06-2019 28.3 (18:30) 10.2 (00:00) 19.2 9.44 (23:40) 6.39 (23:40) 0 0 0 0 0
07-06-2019 23.1 (18:40) 10.3 (00:00) 16.7 13.33 (00:50) 8.33 (00:50) 0 0 0 0 0
06-06-2019 24.8 (16:50) 8.9 (00:00) 16.8 13.61 (17:50) 8.33 (20:50) 0 0 0 0 0
05-06-2019 22.4 (18:50) 10.9 (00:00) 16.6 11.94 (00:10) 7.78 (00:10) 0 0 0 0 0
04-06-2019 26.8 (16:40) 15.6 (00:00) 21.2 14.72 (19:30) 9.17 (18:30) 0 0 0 0 0
03-06-2019 34.9 (17:00) 16.9 (00:00) 25.9 11.11 (17:20) 6.94 (17:30) 0 0 0 0 0
02-06-2019 35.4 (16:40) 17.4 (00:00) 26.4 10.28 (21:20) 6.67 (21:40) 0 0 0 0 0
01-06-2019 35 (17:20) 17.6 (00:00) 26.3 8.06 (18:00) 4.44 (02:00) 0 0 0 0 0
31-05-2019 34.1 (18:00) 15.2 (00:00) 24.6 13.06 (16:40) 6.67 (15:40) 0 0 0 0 0
30-05-2019 33 (16:50) 16.4 (00:00) 24.7 10.28 (17:20) 5.83 (18:30) 0 0 0 0 0
29-05-2019 30.6 (18:50) 18.2 (00:00) 24.4 11.39 (18:50) 6.67 (10:10) 0 0 0 0 0
28-05-2019 32.5 (16:40) 16 (00:00) 24.3 12.22 (17:30) 6.67 (18:10) 0 0 0 0 0

Gráficas

Temp. máximas Temp. mínimas Temp. medias Precipitaciones Rachas de viento máximas Velocidades máximas media en intervalos de 10 minutos

Datos horarios

Fecha y hora oficial Temperatura (ºC) Velocidad del viento (km/h) Dirección del viento Racha (km/h) Dirección de racha Precipitación (mm) Presión (hPa) Tendencia (hPa) Humedad (%)
2019-06-26 23:00:00 26.1 13 Oeste 24 Oeste 0 -- -- 43
2019-06-26 22:00:00 27.7 14 Oeste 27 Oeste 0 -- -- 40
2019-06-26 21:00:00 29.2 19 Oeste 32 Sudoeste 0 -- -- 37
2019-06-26 20:00:00 31 19 Sudoeste 34 Oeste 0 -- -- 35
2019-06-26 19:00:00 31.9 21 Sudoeste 36 Sudoeste 0 -- -- 33
2019-06-26 18:00:00 32.1 18 Sudoeste 36 Sudoeste 0 -- -- 31
2019-06-26 17:00:00 31.9 15 Oeste 32 Sudoeste 0 -- -- 32
2019-06-26 16:00:00 31.3 15 Oeste 30 Sudoeste 0 -- -- 33
2019-06-26 15:00:00 30.7 14 Sudoeste 30 Oeste 0 -- -- 35
2019-06-26 14:00:00 29.1 8 Sudoeste 26 Sudoeste 0 -- -- 40
2019-06-26 13:00:00 27.4 12 Oeste 27 Sudoeste 0 -- -- --
2019-06-26 12:00:00 26.5 12 Sudoeste 22 Oeste 0 -- -- 47
2019-06-26 11:00:00 24.6 9 Oeste 17 Oeste 0 -- -- 52
2019-06-26 10:00:00 23.4 6 Oeste 12 Oeste 0 -- -- 58
2019-06-26 09:00:00 21.6 6 Noroeste 13 Sudoeste 0 -- -- 63
2019-06-26 08:00:00 18.7 9 Sudoeste 14 Sudoeste 0 -- -- 70
2019-06-26 07:00:00 17.5 10 Sur 13 Sur 0 -- -- 69
2019-06-26 06:00:00 18.5 9 Sudoeste 13 Oeste 0 -- -- 68
2019-06-26 05:00:00 18.7 9 Sudoeste 12 Oeste 0 -- -- 67
2019-06-26 04:00:00 19.9 10 Oeste 15 Oeste 0 -- -- 62
2019-06-26 03:00:00 21.1 12 Oeste 22 Oeste 0 -- -- 60
2019-06-26 02:00:00 22.2 17 Oeste 30 Oeste 0 -- -- 57
2019-06-26 01:00:00 23.5 17 Noroeste 27 Noroeste 0 -- -- 51
2019-06-26 00:00:00 25.1 16 Noroeste 28 Oeste 0 -- -- 44
2019-06-25 23:00:00 26.9 7 Oeste 17 Noroeste 0 -- -- 37
2019-06-25 22:00:00 28.7 8 Norte 27 Norte 0 -- -- 35
2019-06-25 21:00:00 30.7 13 Norte 24 Norte 0 -- -- 32
2019-06-25 20:00:00 32.1 9 Noroeste 30 Sudoeste 0 -- -- 31
2019-06-25 19:00:00 32.6 12 Sudoeste 25 Oeste 0 -- -- 32
2019-06-25 18:00:00 32.6 15 Oeste 27 Oeste 0 -- -- 31
2019-06-25 17:00:00 32.9 7 Sur 30 Oeste 0 -- -- 33
2019-06-25 16:00:00 32.3 15 Sudoeste 30 Sudoeste 0 -- -- 34
2019-06-25 15:00:00 31.1 6 Noroeste 21 Oeste 0 -- -- 36
2019-06-25 14:00:00 29.5 13 Oeste 29 Sudoeste 0 -- -- 39
2019-06-25 13:00:00 29.4 10 Sur 26 Nordeste 0 -- -- 41
2019-06-25 12:00:00 27.4 7 Sudoeste 18 Sur 0 -- -- 44
2019-06-25 11:00:00 25.2 8 Sur 14 Sudeste 0 -- -- 45
2019-06-25 10:00:00 22.4 4 Sur 12 Sur 0 -- -- 46
2019-06-25 09:00:00 19.8 7 Sur 10 Sur 0 -- -- 53
2019-06-25 08:00:00 17.3 5 Sudoeste 6 Sudoeste 0 -- -- 60
2019-06-25 07:00:00 16.6 2 Noroeste 5 Sudoeste 0 -- -- 59
2019-06-25 06:00:00 16.3 5 Sudoeste 7 Sudoeste 0 -- -- 58
2019-06-25 05:00:00 16.9 5 Sudoeste 6 Sudoeste 0 -- -- 56
2019-06-25 04:00:00 17.1 4 Oeste 6 Oeste 0 -- -- 55
2019-06-25 03:00:00 17.7 4 Norte 9 Noroeste 0 -- -- 55
2019-06-25 02:00:00 17.8 5 Noroeste 8 Noroeste 0 -- -- 57
2019-06-25 01:00:00 18.4 4 Norte 8 Nordeste 0 -- -- 56
2019-06-25 00:00:00 19.1 5 Norte 15 Nordeste 0 -- -- 53
2019-06-24 23:00:00 20.2 10 Nordeste 33 Norte 0 -- -- 51
2019-06-24 22:00:00 22.3 17 Norte 32 Norte 0 -- -- 49
2019-06-24 21:00:00 24.3 22 Norte 32 Norte 0 -- -- 46
2019-06-24 20:00:00 25.8 13 Norte 29 Noroeste 0 -- -- 50
2019-06-24 19:00:00 27.3 19 Norte 45 Norte 0 -- -- 50
2019-06-24 18:00:00 27.7 23 Norte 42 Norte 0 -- -- 53
2019-06-24 17:00:00 27.4 26 Noroeste 39 Norte 0 -- -- 53
2019-06-24 16:00:00 28.1 24 Norte 39 Noroeste 0 -- -- 49
2019-06-24 15:00:00 30.3 14 Oeste 29 Noroeste 0 -- -- 39
2019-06-24 14:00:00 29 14 Sudoeste 24 Sudoeste 0 -- -- 41
2019-06-24 13:00:00 27.1 5 Nordeste 21 Sur 0 -- -- 49
2019-06-24 12:00:00 25.8 6 Oeste 14 Sudoeste 0 -- -- 58
2019-06-24 11:00:00 24 6 Noroeste 10 Noroeste 0 -- -- 66
2019-06-24 10:00:00 23.1 3 Oeste 10 Oeste 0 -- -- 69
2019-06-24 09:00:00 21.3 4 Oeste 8 Noroeste 0 -- -- 75
2019-06-24 08:00:00 19.8 6 Noroeste 9 Noroeste 0 -- -- 81
2019-06-24 07:00:00 20 5 Norte 9 Norte 0 -- -- 79
2019-06-24 06:00:00 20.6 3 Norte 13 Noroeste 0 -- -- 78
2019-06-24 05:00:00 21.1 10 Noroeste 21 Noroeste 0 -- -- 76
2019-06-24 04:00:00 21.5 13 Noroeste 23 Noroeste 0 -- -- 73
2019-06-24 03:00:00 22 14 Norte 22 Noroeste 0 -- -- 70
2019-06-24 02:00:00 22.7 13 Noroeste 21 Noroeste 0 -- -- 64
2019-06-24 01:00:00 23.5 12 Noroeste 21 Noroeste 0 -- -- 60
2019-06-24 00:00:00 24.1 13 Noroeste 20 Noroeste 0 -- -- 58
2019-06-23 23:00:00 24.6 12 Noroeste 25 Noroeste 0 -- -- 55
2019-06-23 22:00:00 25.2 19 Norte 34 Norte 0 -- -- 53
2019-06-23 21:00:00 27.4 20 Norte 34 Noroeste 0 -- -- 43
2019-06-23 20:00:00 28.7 15 Norte 27 Norte 0 -- -- 26
2019-06-23 19:00:00 29.3 20 Norte 31 Norte 0 -- -- 22
2019-06-23 18:00:00 31.1 18 Norte 29 Noroeste 0 -- -- 22
2019-06-23 17:00:00 32 12 Noroeste 27 Noroeste 0 -- -- 22
2019-06-23 16:00:00 31.7 6 Oeste 31 Oeste 0 -- -- 22
2019-06-23 15:00:00 30.7 14 Noroeste 30 Oeste 0 -- -- 25
2019-06-23 14:00:00 29.4 11 Noroeste 24 Noroeste 0 -- -- 27
2019-06-23 13:00:00 27.4 9 Noroeste 19 Noroeste 0 -- -- 30
2019-06-23 12:00:00 25.8 7 Norte 23 Norte 0 -- -- 34
2019-06-23 11:00:00 24.2 3 Nordeste 11 Nordeste 0 -- -- 35
2019-06-23 10:00:00 22.4 0 Calma 8 Sudoeste 0 -- -- 37
2019-06-23 09:00:00 20.1 6 Sur 9 Sur 0 -- -- 41
2019-06-23 08:00:00 16.5 7 Sudoeste 9 Sudoeste 0 -- -- 42
2019-06-23 07:00:00 15 6 Sudoeste 8 Sudoeste 0 -- -- 43
2019-06-23 06:00:00 16.2 5 Oeste 10 Noroeste 0 -- -- 44
2019-06-23 05:00:00 18.1 6 Noroeste 15 Noroeste 0 -- -- 41
2019-06-23 04:00:00 19.1 12 Noroeste 22 Noroeste 0 -- -- 37
2019-06-23 03:00:00 20.1 9 Noroeste 19 Noroeste 0 -- -- 33
2019-06-23 02:00:00 21.4 13 Noroeste 21 Noroeste 0 -- -- 30
2019-06-23 01:00:00 22.7 10 Noroeste 19 Oeste 0 -- -- 29
2019-06-23 00:00:00 24 13 Noroeste 21 Noroeste 0 -- -- 26
2019-06-22 23:00:00 25.3 11 Noroeste 27 Norte 0 -- -- 23
2019-06-22 22:00:00 27.8 14 Noroeste 29 Noroeste 0 -- -- 20
2019-06-22 21:00:00 30 19 Noroeste 32 Noroeste 0 -- -- 22
2019-06-22 20:00:00 32.1 19 Noroeste 37 Norte 0 -- -- 22
2019-06-22 19:00:00 33.2 15 Noroeste 26 Noroeste 0 -- -- 21
2019-06-22 18:00:00 33.4 8 Norte 24 Oeste 0 -- -- 22
2019-06-22 17:00:00 33.5 18 Noroeste 36 Oeste 0 -- -- 22
2019-06-22 16:00:00 33.1 10 Oeste 28 Oeste 0 -- -- 23
2019-06-22 15:00:00 31.9 14 Sur 30 Oeste 0 -- -- 25
2019-06-22 14:00:00 30.2 9 Norte 27 Oeste 0 -- -- 28
2019-06-22 13:00:00 29 5 Sudeste 11 Nordeste 0 -- -- 30
2019-06-22 12:00:00 26.9 4 Nordeste 12 Norte 0 -- -- 33
2019-06-22 11:00:00 25.1 3 Nordeste 10 Sudeste 0 -- -- 38
2019-06-22 10:00:00 21.5 6 Sudeste 11 Sur 0 -- -- 48
2019-06-22 09:00:00 19.1 2 Sudeste 8 Norte 0 -- -- 54
2019-06-22 08:00:00 15.7 2 Norte 8 Noroeste 0 -- -- 62
2019-06-22 07:00:00 14.9 2 Sudoeste 6 Sur 0 -- -- 65
2019-06-22 06:00:00 15 4 Sur 7 Sudoeste 0 -- -- 62
2019-06-22 05:00:00 15.6 4 Sur 7 Oeste 0 -- -- 60
2019-06-22 04:00:00 17.9 4 Noroeste 15 Noroeste 0 -- -- 55
2019-06-22 03:00:00 19 12 Noroeste 21 Noroeste 0 -- -- 55
2019-06-22 02:00:00 20 15 Noroeste 23 Noroeste 0 -- -- 53
2019-06-22 01:00:00 21.2 14 Noroeste 25 Noroeste 0 -- -- 48
2019-06-22 00:00:00 22.5 15 Noroeste 26 Noroeste 0 -- -- 44
2019-06-21 23:00:00 24.2 14 Norte 30 Noroeste 0 -- -- 38
2019-06-21 22:00:00 26.4 6 Noroeste 15 Noroeste 0 -- -- 32
2019-06-21 21:00:00 27.9 12 Oeste 19 Norte 0 -- -- 29
2019-06-21 20:00:00 28.6 7 Noroeste 22 Noroeste 0 -- -- 29
2019-06-21 19:00:00 29 8 Noroeste 25 Nordeste 0 -- -- 28
2019-06-21 18:00:00 28.5 8 Norte 22 Norte 0 -- -- 29
2019-06-21 17:00:00 28.3 17 Norte 27 Nordeste 0 -- -- 29
2019-06-21 16:00:00 27.5 17 Norte 28 Oeste 0 -- -- 34
2019-06-21 15:00:00 26.4 11 Noroeste 23 Norte 0 -- -- 40
2019-06-21 14:00:00 25.5 13 Norte 25 Norte 0 -- -- 44
2019-06-21 13:00:00 23.5 9 Norte 24 Noroeste 0 -- -- 49
2019-06-21 12:00:00 21.2 5 Norte 18 Noroeste 0 -- -- 56
2019-06-21 11:00:00 19.1 7 Noroeste 17 Noroeste 0 -- -- 62
2019-06-21 10:00:00 17.1 8 Noroeste 21 Noroeste 0 -- -- 69
2019-06-21 09:00:00 15.3 12 Noroeste 19 Noroeste 0 -- -- 77
2019-06-21 08:00:00 13.4 9 Noroeste 18 Noroeste 0 -- -- 84
2019-06-21 07:00:00 12.4 8 Noroeste 20 Noroeste 0 -- -- 86
2019-06-21 06:00:00 12.9 9 Noroeste 22 Noroeste 0 -- -- 84
2019-06-21 05:00:00 13.4 13 Noroeste 22 Oeste 0 -- -- 82
2019-06-21 04:00:00 14.2 10 Noroeste 29 Noroeste 0 -- -- 77
2019-06-21 03:00:00 15.3 14 Noroeste 31 Noroeste 0 -- -- 73
2019-06-21 02:00:00 16.6 18 Noroeste 34 Norte 0 -- -- 67
2019-06-21 01:00:00 17.9 20 Noroeste 35 Noroeste 0 -- -- 60
2019-06-21 00:00:00 19.2 19 Noroeste 39 Noroeste 0 -- -- 56
2019-06-20 23:00:00 20.6 22 Noroeste 36 Norte 0 -- -- 51
2019-06-20 22:00:00 22.2 23 Noroeste 36 Noroeste 0 -- -- 47
2019-06-20 21:00:00 23.8 22 Noroeste 35 Noroeste 0 -- -- 43
2019-06-20 20:00:00 25.2 23 Noroeste 36 Noroeste 0 -- -- 39
2019-06-20 19:00:00 26.9 16 Noroeste 31 Noroeste 0 -- -- 34
2019-06-20 18:00:00 27.3 23 Noroeste 36 Noroeste 0 -- -- 34
2019-06-20 17:00:00 27.7 18 Noroeste 33 Noroeste 0 -- -- 35
2019-06-20 16:00:00 26.9 16 Noroeste 36 Norte 0 -- -- 39
2019-06-20 15:00:00 27.1 16 Noroeste 29 Noroeste 0 -- -- 41
2019-06-20 14:00:00 25.5 11 Noroeste 32 Noroeste 0 -- -- 45
2019-06-20 13:00:00 23.8 12 Noroeste 27 Noroeste 0 -- -- 50
2019-06-20 12:00:00 22.8 9 Noroeste 21 Oeste 0 -- -- 55
2019-06-20 11:00:00 21.9 5 Noroeste 12 Noroeste 0 -- -- 60
2019-06-20 10:00:00 19.9 9 Noroeste 19 Noroeste 0 -- -- 66
2019-06-20 09:00:00 18.4 11 Noroeste 17 Noroeste 0 -- -- 72
2019-06-20 08:00:00 16.7 7 Noroeste 12 Noroeste 0 -- -- 77
2019-06-20 07:00:00 15.9 7 Noroeste 12 Noroeste 0 -- -- 80
2019-06-20 06:00:00 15.9 5 Noroeste 13 Oeste 0 -- -- 80
2019-06-20 05:00:00 16.4 6 Noroeste 19 Noroeste 0 -- -- 77
2019-06-20 04:00:00 17 11 Noroeste 21 Noroeste 0 -- -- 74
2019-06-20 03:00:00 17.7 10 Noroeste 18 Noroeste 0 -- -- 69
2019-06-20 02:00:00 18.5 11 Noroeste 23 Noroeste 0 -- -- 65
2019-06-20 01:00:00 19.4 14 Noroeste 24 Noroeste 0 -- -- 63
2019-06-20 00:00:00 20.2 10 Noroeste 14 Noroeste 0 -- -- 62
2019-06-19 23:00:00 21.1 8 Noroeste 14 Noroeste 0 -- -- 58
2019-06-19 22:00:00 22.6 11 Noroeste 22 Noroeste 0 -- -- 54
2019-06-19 21:00:00 23.9 15 Noroeste 26 Norte 0 -- -- 51
2019-06-19 20:00:00 24.8 14 Noroeste 28 Norte 0 -- -- 49
2019-06-19 19:00:00 25.1 13 Norte 40 Noroeste 0 -- -- 45
2019-06-19 18:00:00 25.7 12 Noroeste 28 Noroeste 0 -- -- 43
2019-06-19 17:00:00 26.1 8 Noroeste 23 Noroeste 0 -- -- 44
2019-06-19 16:00:00 24.9 10 Noroeste 21 Nordeste 0 -- -- 49
2019-06-19 15:00:00 24.8 11 Noroeste 20 Norte 0 -- -- 49
2019-06-19 14:00:00 23.6 7 Noroeste 19 Noroeste 0 -- -- 52
2019-06-19 13:00:00 22.5 7 Noroeste 15 Noroeste 0 -- -- 56
2019-06-19 12:00:00 21.6 5 Norte 12 Norte 0 -- -- 60
2019-06-19 11:00:00 20.4 4 Oeste 14 Oeste 0 -- -- 66
2019-06-19 10:00:00 19 7 Oeste 15 Sudoeste 0 -- -- 72
2019-06-19 09:00:00 17.3 5 Sur 9 Sur 0 -- -- 75
2019-06-19 08:00:00 16.3 3 Sur 12 Oeste 0 -- -- 78
2019-06-19 07:00:00 16 5 Oeste 12 Oeste 0 -- -- 81
2019-06-19 06:00:00 16.3 4 Noroeste 16 Oeste 0 -- -- 79
2019-06-19 05:00:00 16.8 4 Noroeste 13 Oeste 0 -- -- 75
2019-06-19 04:00:00 17.4 8 Noroeste 19 Oeste 0 -- -- 73
2019-06-19 03:00:00 18.2 10 Noroeste 25 Noroeste 0 -- -- 69
2019-06-19 02:00:00 18.9 11 Noroeste 24 Noroeste 0 -- -- 64
2019-06-19 01:00:00 20.3 15 Noroeste 28 Noroeste 0 -- -- 55
2019-06-19 00:00:00 21.2 19 Oeste 28 Oeste 0 -- -- 58
2019-06-18 23:00:00 22 18 Oeste 30 Oeste 0 -- -- 56
2019-06-18 22:00:00 23 17 Oeste 31 Oeste 0 -- -- 52
2019-06-18 21:00:00 24.4 20 Oeste 33 Oeste 0 -- -- 48
2019-06-18 20:00:00 26.1 21 Oeste 37 Oeste 0 -- -- 42
2019-06-18 19:00:00 26.5 25 Oeste 42 Oeste 0 -- -- 45
2019-06-18 18:00:00 27.2 26 Oeste 41 Oeste 0 -- -- 44
2019-06-18 17:00:00 27.6 28 Oeste 42 Oeste 0 -- -- 38
2019-06-18 16:00:00 27.8 25 Oeste 42 Oeste 0 -- -- 40
2019-06-18 15:00:00 27 22 Oeste 44 Oeste 0 -- -- 41
2019-06-18 14:00:00 25.7 16 Oeste 33 Oeste 0 -- -- 44
2019-06-18 13:00:00 25.9 12 Noroeste 24 Oeste 0 -- -- 37
2019-06-18 12:00:00 23.3 8 Noroeste 17 Oeste 0 -- -- 36
2019-06-18 11:00:00 21.4 7 Noroeste 21 Noroeste 0 -- -- 36
2019-06-18 10:00:00 19.3 4 Sur 10 Sur 0 -- -- 50
2019-06-18 09:00:00 16.8 2 Oeste 10 Noroeste 0 -- -- 64
2019-06-18 08:00:00 14.7 4 Noroeste 15 Noroeste 0 -- -- 69
2019-06-18 07:00:00 13.4 7 Noroeste 14 Noroeste 0 -- -- 65
2019-06-18 06:00:00 14.4 8 Noroeste 13 Noroeste 0 -- -- 61
2019-06-18 05:00:00 16.1 8 Noroeste 10 Noroeste 0 -- -- 57
2019-06-18 04:00:00 17.6 4 Noroeste 12 Noroeste 0 -- -- 52
2019-06-18 03:00:00 19.2 6 Noroeste 16 Oeste 0 -- -- 48
2019-06-18 02:00:00 20.5 11 Oeste 17 Oeste 0 -- -- 45
2019-06-18 01:00:00 21.5 11 Oeste 17 Oeste 0 -- -- 28
2019-06-18 00:00:00 23.4 13 Oeste 21 Oeste 0 -- -- 26
2019-06-17 23:00:00 25 17 Oeste 30 Oeste 0 -- -- 25
2019-06-17 22:00:00 26.4 17 Oeste 30 Oeste 0 -- -- 22
2019-06-17 21:00:00 28.2 21 Oeste 34 Oeste 0 -- -- 20
2019-06-17 20:00:00 30.3 18 Oeste 31 Oeste 0 -- -- 20
2019-06-17 19:00:00 31.6 16 Oeste 32 Oeste 0 -- -- 17
2019-06-17 18:00:00 31.8 19 Oeste 36 Noroeste 0 -- -- 15
2019-06-17 17:00:00 31.6 20 Sudoeste 37 Sudoeste 0 -- -- 17
2019-06-17 16:00:00 31.3 10 Sudoeste 31 Sudoeste 0 -- -- 16
2019-06-17 15:00:00 30.5 17 Oeste 30 Sudoeste 0 -- -- 16
2019-06-17 14:00:00 29.2 14 Sudoeste 31 Sudoeste 0 -- -- 17
2019-06-17 13:00:00 27.9 15 Sur 29 Sudoeste 0 -- -- 19
2019-06-17 12:00:00 25.6 13 Sudoeste 26 Sudoeste 0 -- -- 29
2019-06-17 11:00:00 24 11 Sudoeste 21 Sudoeste 0 -- -- 32
2019-06-17 10:00:00 21.4 8 Sur 14 Sur 0 -- -- 41
2019-06-17 09:00:00 18.1 8 Sur 14 Sur 0 -- -- 49
2019-06-17 08:00:00 14 8 Sur 11 Sur 0 -- -- 57
2019-06-17 07:00:00 12.5 7 Sur 9 Sur 0 -- -- 59
2019-06-17 06:00:00 15.5 6 Noroeste 8 Noroeste 0 -- -- 63
2019-06-17 05:00:00 15.1 5 Oeste 11 Oeste 0 -- -- 55
2019-06-17 04:00:00 16 9 Oeste 10 Oeste 0 -- -- 55
2019-06-17 03:00:00 17.8 7 Oeste 10 Oeste 0 -- -- 52
2019-06-17 02:00:00 19.3 6 Noroeste 15 Oeste 0 -- -- 46
2019-06-17 01:00:00 21 11 Oeste 21 Oeste 0 -- -- 37
2019-06-17 00:00:00 22.1 12 Noroeste 20 Oeste 0 -- -- 33
2019-06-16 23:00:00 23.4 9 Oeste 15 Oeste 0 -- -- 28
2019-06-16 22:00:00 25.9 9 Noroeste 23 Noroeste 0 -- -- 25
2019-06-16 21:00:00 27.6 13 Norte 28 Norte 0 -- -- 22
2019-06-16 20:00:00 28.7 15 Norte 38 Norte 0 -- -- 24
2019-06-16 19:00:00 30.1 14 Norte 28 Norte 0 -- -- 24
2019-06-16 18:00:00 29.9 18 Norte 29 Oeste 0 -- -- 24
2019-06-16 17:00:00 30.7 8 Norte 22 Oeste 0 -- -- 23
2019-06-16 16:00:00 29.3 6 Noroeste 21 Noroeste 0 -- -- 25
2019-06-16 15:00:00 27.6 10 Nordeste 19 Nordeste 0 -- -- 28
2019-06-16 14:00:00 26 3 Sur 10 Nordeste 0 -- -- 31
2019-06-16 13:00:00 24.9 3 Sur 10 Nordeste 0 -- -- 33
2019-06-16 12:00:00 22.5 2 Sur 5 Este 0 -- -- 41
2019-06-16 11:00:00 20.6 2 Oeste 8 Noroeste 0 -- -- 47
2019-06-16 10:00:00 19 3 Norte 8 Nordeste 0 -- -- 52
2019-06-16 09:00:00 16.6 6 Norte 10 Norte 0 -- -- 59
2019-06-16 08:00:00 14.6 7 Noroeste 10 Noroeste 0 -- -- 63
2019-06-16 07:00:00 13.2 5 Noroeste 9 Noroeste 0 -- -- 66
2019-06-16 06:00:00 13.9 6 Noroeste 11 Oeste 0 -- -- 64
2019-06-16 05:00:00 14.5 7 Noroeste 14 Noroeste 0 -- -- 61
2019-06-16 04:00:00 15.6 7 Noroeste 16 Noroeste 0 -- -- 59
2019-06-16 03:00:00 16.7 10 Noroeste 18 Noroeste 0 -- -- 53
2019-06-16 02:00:00 17.7 10 Noroeste 15 Noroeste 0 -- -- 42
2019-06-16 01:00:00 19.1 8 Noroeste 13 Norte 0 -- -- 33
2019-06-16 00:00:00 19 4 Nordeste 8 Nordeste 0 -- -- 33
2019-06-15 23:00:00 20.2 4 Nordeste 7 Norte 0 -- -- 28
2019-06-15 22:00:00 22.3 5 Noroeste 10 Noroeste 0 -- -- 26
2019-06-15 21:00:00 23.7 8 Norte 18 Norte 0 -- -- 26
2019-06-15 20:00:00 25.4 5 Norte 20 Noroeste 0 -- -- 24
2019-06-15 19:00:00 25.6 13 Noroeste 26 Norte 0 -- -- 25
2019-06-15 18:00:00 25.2 14 Norte 23 Noroeste 0 -- -- 27
2019-06-15 17:00:00 25.1 8 Noroeste 24 Norte 0 -- -- 26
2019-06-15 16:00:00 24.1 9 Norte 27 Norte 0 -- -- 29
2019-06-15 15:00:00 23 8 Oeste 24 Oeste 0 -- -- 33
2019-06-15 14:00:00 22.5 10 Noroeste 20 Norte 0 -- -- 34
2019-06-15 13:00:00 20.5 5 Sudeste 18 Norte 0 -- -- 40
2019-06-15 12:00:00 19.2 5 Nordeste 18 Noroeste 0 -- -- 46
2019-06-15 11:00:00 18.2 7 Noroeste 15 Norte 0 -- -- 50
2019-06-15 10:00:00 16.3 3 Norte 10 Noroeste 0 -- -- 57
2019-06-15 09:00:00 14.4 6 Noroeste 12 Noroeste 0 -- -- 67
2019-06-15 08:00:00 10.8 6 Oeste 9 Oeste 0 -- -- 76
2019-06-15 07:00:00 9.7 5 Oeste 9 Oeste 0 -- -- 77
2019-06-15 06:00:00 10.1 5 Oeste 9 Oeste 0 -- -- 75
2019-06-15 05:00:00 11.5 5 Oeste 14 Noroeste 0 -- -- 69
2019-06-15 04:00:00 12.5 10 Noroeste 17 Noroeste 0 -- -- 66
2019-06-15 03:00:00 13.2 12 Noroeste 19 Noroeste 0 -- -- 62
2019-06-15 02:00:00 13.9 12 Noroeste 17 Noroeste 0 -- -- 59
2019-06-15 01:00:00 14.4 12 Noroeste 19 Noroeste 0 -- -- 56
2019-06-15 00:00:00 15.5 10 Noroeste 19 Noroeste 0 -- -- 53
2019-06-14 23:00:00 16.7 13 Norte 28 Norte 0 -- -- 50
2019-06-14 22:00:00 17.9 14 Norte 28 Norte 0 -- -- 46
2019-06-14 21:00:00 19.3 18 Noroeste 32 Noroeste 0 -- -- 41
2019-06-14 20:00:00 20.1 16 Noroeste 38 Norte 0 -- -- 37
2019-06-14 19:00:00 21 22 Noroeste 38 Noroeste 0 -- -- 36
2019-06-14 18:00:00 20.9 18 Noroeste 39 Norte 0 -- -- 36
2019-06-14 17:00:00 21.2 21 Noroeste 38 Noroeste 0 -- -- 35
2019-06-14 16:00:00 21.2 19 Noroeste 39 Noroeste 0 -- -- 35
2019-06-14 15:00:00 19.8 18 Noroeste 36 Noroeste 0 -- -- 39
2019-06-14 14:00:00 19.9 21 Noroeste 47 Noroeste 0 -- -- 39
2019-06-14 13:00:00 19.6 19 Noroeste 35 Noroeste 0 -- -- 38
2019-06-14 12:00:00 18.5 20 Noroeste 38 Noroeste 0 -- -- 43
2019-06-14 11:00:00 17.4 16 Noroeste 30 Noroeste 0 -- -- 49
2019-06-14 10:00:00 14.9 14 Noroeste 26 Noroeste 0 -- -- 60
2019-06-14 09:00:00 12.7 13 Noroeste 25 Oeste 0 -- -- 67
2019-06-14 08:00:00 11 10 Noroeste 21 Noroeste 0 -- -- 72
2019-06-14 07:00:00 10.2 8 Noroeste 14 Noroeste 0 -- -- 72
2019-06-14 06:00:00 10.8 7 Noroeste 15 Oeste 0 -- -- 71
2019-06-14 05:00:00 11.5 10 Noroeste 23 Noroeste 0 -- -- 69
2019-06-14 04:00:00 12.3 7 Noroeste 21 Noroeste 0 -- -- 63
2019-06-14 03:00:00 13.2 13 Noroeste 24 Noroeste 0 -- -- 62
2019-06-14 02:00:00 14.2 16 Noroeste 33 Noroeste 0 -- -- 57
2019-06-14 01:00:00 15.5 21 Noroeste 35 Noroeste 0 -- -- 52
2019-06-14 00:00:00 17.4 17 Noroeste 32 Noroeste 0 -- -- 46
2019-06-13 23:00:00 19.6 14 Noroeste 25 Noroeste 0 -- -- 34
2019-06-13 22:00:00 21.6 18 Noroeste 30 Noroeste 0 -- -- 30
2019-06-13 21:00:00 23.3 20 Noroeste 32 Noroeste 0 -- -- 26
2019-06-13 20:00:00 25.3 19 Noroeste 36 Noroeste 0 -- -- 22
2019-06-13 19:00:00 25.6 18 Noroeste 36 Noroeste 0 -- -- 22
2019-06-13 18:00:00 26.6 22 Noroeste 39 Oeste 0 -- -- 22
2019-06-13 17:00:00 25.7 16 Norte 33 Noroeste 0 -- -- 26
2019-06-13 16:00:00 25.9 18 Noroeste 37 Noroeste 0 -- -- 28
2019-06-13 15:00:00 24.6 16 Noroeste 28 Noroeste 0 -- -- 30
2019-06-13 14:00:00 23.5 10 Noroeste 21 Oeste 0 -- -- 31
2019-06-13 13:00:00 21.4 6 Noroeste 18 Noroeste 0 -- -- 35
2019-06-13 12:00:00 19.2 6 Noroeste 16 Noroeste 0 -- -- 41
2019-06-13 11:00:00 16.8 8 Noroeste 16 Noroeste 0 -- -- 48
2019-06-13 10:00:00 14.3 5 Oeste 14 Noroeste 0 -- -- 58
2019-06-13 09:00:00 12.3 7 Noroeste 17 Noroeste 0 -- -- 68
2019-06-13 08:00:00 10.6 9 Noroeste 17 Noroeste 0 -- -- 73
2019-06-13 07:00:00 9.8 8 Noroeste 22 Noroeste 0 -- -- 74
2019-06-13 06:00:00 10.4 10 Noroeste 23 Noroeste 0 -- -- 71
2019-06-13 05:00:00 11.2 11 Noroeste 22 Noroeste 0 -- -- 65
2019-06-13 04:00:00 12.6 10 Noroeste 23 Noroeste 0 -- -- 54
2019-06-13 03:00:00 13.6 13 Noroeste 25 Noroeste 0 -- -- 53
2019-06-13 02:00:00 14.8 12 Noroeste 28 Noroeste 0 -- -- 48
2019-06-13 01:00:00 16.5 19 Noroeste 35 Noroeste 0 -- -- 45
2019-06-13 00:00:00 18.5 18 Noroeste 33 Norte 0 -- -- 41
2019-06-12 23:00:00 20.5 15 Noroeste 29 Norte 0 -- -- 25
2019-06-12 22:00:00 22.5 19 Norte 35 Norte 0 -- -- 21
2019-06-12 21:00:00 25.4 20 Noroeste 32 Noroeste 0 -- -- 16
2019-06-12 20:00:00 27.7 16 Noroeste 37 Noroeste 0 -- -- 17
2019-06-12 19:00:00 28.9 10 Noroeste 29 Noroeste 0 -- -- 14
2019-06-12 18:00:00 28.6 14 Noroeste 33 Noroeste 0 -- -- 15
2019-06-12 17:00:00 28.3 10 Noroeste 30 Noroeste 0 -- -- 16
2019-06-12 16:00:00 27.5 12 Oeste 25 Oeste 0 -- -- 16
2019-06-12 15:00:00 26.5 7 Norte 24 Noroeste 0 -- -- 17
2019-06-12 14:00:00 25.3 8 Nordeste 24 Norte 0 -- -- 19
2019-06-12 13:00:00 25.1 8 Noroeste 22 Norte 0 -- -- 20
2019-06-12 12:00:00 23.2 6 Nordeste 12 Norte 0 -- -- 22
2019-06-12 11:00:00 20.9 4 Oeste 10 Nordeste 0 -- -- 26
2019-06-12 10:00:00 18.5 5 Norte 11 Noroeste 0 -- -- 29
2019-06-12 09:00:00 15.7 6 Noroeste 10 Noroeste 0 -- -- 36
2019-06-12 08:00:00 12.4 3 Noroeste 11 Oeste 0 -- -- 39
2019-06-12 07:00:00 9.8 9 Oeste 12 Oeste 0 -- -- 40
2019-06-12 06:00:00 11.9 6 Oeste 10 Noroeste 0 -- -- 35
2019-06-12 05:00:00 13.1 8 Noroeste 18 Noroeste 0 -- -- 33
2019-06-12 04:00:00 14.5 9 Nordeste 12 Nordeste 0 -- -- 30
2019-06-12 03:00:00 15.6 7 Nordeste 12 Nordeste 0 -- -- 28
2019-06-12 02:00:00 16 10 Nordeste 13 Nordeste 0 -- -- 27
2019-06-12 01:00:00 16.9 11 Nordeste 18 Nordeste 0 -- -- 25
2019-06-12 00:00:00 17.4 12 Nordeste 17 Norte 0 -- -- 24
2019-06-11 23:00:00 19.1 12 Nordeste 22 Nordeste 0 -- -- 22
2019-06-11 22:00:00 21.4 15 Nordeste 32 Nordeste 0 -- -- 21
2019-06-11 21:00:00 23 23 Nordeste 37 Nordeste 0 -- -- 20
2019-06-11 20:00:00 24.3 21 Nordeste 43 Norte 0 -- -- 20
2019-06-11 19:00:00 24.9 21 Nordeste 42 Nordeste 0 -- -- 22
2019-06-11 18:00:00 25.2 24 Nordeste 41 Nordeste 0 -- -- 21
2019-06-11 17:00:00 24.9 22 Norte 41 Norte 0 -- -- 23
2019-06-11 16:00:00 24.3 24 Norte 45 Norte 0 -- -- 28
2019-06-11 15:00:00 23.9 26 Nordeste 44 Norte 0 -- -- 31
2019-06-11 14:00:00 23 28 Nordeste 44 Norte 0 -- -- 32
2019-06-11 13:00:00 22.1 26 Norte 40 Norte 0 -- -- 39
2019-06-11 12:00:00 20.8 19 Norte 33 Norte 0 -- -- 44
2019-06-11 11:00:00 18.1 19 Norte 34 Norte 0 -- -- 51
2019-06-11 10:00:00 16.4 14 Noroeste 24 Noroeste 0 -- -- 55
2019-06-11 09:00:00 14 17 Noroeste 25 Noroeste 0 -- -- 63
2019-06-11 08:00:00 12.2 11 Noroeste 22 Noroeste 0 -- -- 69
2019-06-11 07:00:00 11.3 15 Noroeste 25 Noroeste 0 -- -- 71
2019-06-11 06:00:00 11.8 15 Noroeste 26 Noroeste 0 -- -- 67
2019-06-11 05:00:00 12.4 14 Noroeste 29 Noroeste 0 -- -- 63
2019-06-11 04:00:00 13 15 Noroeste 34 Noroeste 0 -- -- 59
2019-06-11 03:00:00 13.9 15 Noroeste 27 Noroeste 0 -- -- 55
2019-06-11 02:00:00 14.9 19 Noroeste 31 Noroeste 0 -- -- 52
2019-06-11 01:00:00 16.4 24 Noroeste 36 Noroeste 0 -- -- 47
2019-06-11 00:00:00 18 20 Noroeste 39 Noroeste 0 -- -- 41
2019-06-10 23:00:00 20 26 Noroeste 42 Noroeste 0 -- -- 37
2019-06-10 22:00:00 22.4 24 Noroeste 37 Norte 0 -- -- 32
2019-06-10 21:00:00 24.6 22 Noroeste 36 Noroeste 0 -- -- 30
2019-06-10 20:00:00 26.2 18 Noroeste 32 Noroeste 0 -- -- 26
2019-06-10 19:00:00 26.8 19 Norte 37 Norte 0 -- -- 24
2019-06-10 18:00:00 27.2 17 Noroeste 33 Norte 0 -- -- 23
2019-06-10 17:00:00 26.7 22 Noroeste 33 Noroeste 0 -- -- 25
2019-06-10 16:00:00 26.2 15 Norte 35 Norte 0 -- -- 26
2019-06-10 15:00:00 25.2 15 Norte 27 Nordeste 0 -- -- 28
2019-06-10 14:00:00 23.5 13 Norte 27 Norte 0 -- -- 33
2019-06-10 13:00:00 22.6 12 Norte 27 Norte 0 -- -- 37
2019-06-10 12:00:00 20.9 13 Norte 23 Norte 0 -- -- 47
2019-06-10 11:00:00 18.8 10 Noroeste 20 Noroeste 0 -- -- 53
2019-06-10 10:00:00 16.7 9 Noroeste 18 Noroeste 0 -- -- 62
2019-06-10 09:00:00 14.7 10 Noroeste 23 Noroeste 0 -- -- 71
2019-06-10 08:00:00 12.6 8 Noroeste 23 Noroeste 0 -- -- 80
2019-06-10 07:00:00 11.9 11 Noroeste 20 Noroeste 0 -- -- 81
2019-06-10 06:00:00 12.4 9 Noroeste 18 Noroeste 0 -- -- 79
2019-06-10 05:00:00 13 6 Noroeste 23 Noroeste 0 -- -- 75
2019-06-10 04:00:00 13.9 13 Noroeste 22 Noroeste 0 -- -- 71
2019-06-10 03:00:00 14.8 10 Noroeste 28 Noroeste 0 -- -- 64
2019-06-10 02:00:00 16 17 Noroeste 29 Noroeste 0 -- -- 59
2019-06-10 01:00:00 17.2 17 Noroeste 28 Noroeste 0 -- -- 52
2019-06-10 00:00:00 18.3 16 Noroeste 27 Norte 0 -- -- 48
2019-06-09 23:00:00 19.7 18 Noroeste 33 Noroeste 0 -- -- 43
2019-06-09 22:00:00 21.1 16 Norte 34 Norte 0 -- -- 38
2019-06-09 21:00:00 22.7 24 Noroeste 40 Norte 0 -- -- 36
2019-06-09 20:00:00 24.6 23 Noroeste 38 Noroeste 0 -- -- 32
2019-06-09 19:00:00 25.5 23 Noroeste 39 Noroeste 0 -- -- 29
2019-06-09 18:00:00 26.6 18 Noroeste 38 Noroeste 0 -- -- 27
2019-06-09 17:00:00 26.4 17 Noroeste 36 Noroeste 0 -- -- 25
2019-06-09 16:00:00 25.9 18 Noroeste 37 Noroeste 0 -- -- 29
2019-06-09 15:00:00 24.7 17 Noroeste 36 Noroeste 0 -- -- 29
2019-06-09 14:00:00 23.2 20 Noroeste 34 Noroeste 0 -- -- 29
2019-06-09 13:00:00 21.6 16 Noroeste 32 Noroeste 0 -- -- 35
2019-06-09 12:00:00 19.6 17 Noroeste 29 Noroeste 0 -- -- 42
2019-06-09 11:00:00 17.8 13 Noroeste 24 Noroeste 0 -- -- 46
2019-06-09 10:00:00 15.1 12 Noroeste 23 Noroeste 0 -- -- 53
2019-06-09 09:00:00 13.2 14 Noroeste 26 Noroeste 0 -- -- 60
2019-06-09 08:00:00 11.3 17 Noroeste 23 Noroeste 0 -- -- 61
2019-06-09 07:00:00 10.6 10 Noroeste 17 Noroeste 0 -- -- 61
2019-06-09 06:00:00 11.1 8 Noroeste 12 Noroeste 0 -- -- 58
2019-06-09 05:00:00 11.6 8 Sudoeste 9 Sudoeste 0 -- -- 54
2019-06-09 04:00:00 13.1 2 Oeste 20 Noroeste 0 -- -- 52
2019-06-09 03:00:00 14.5 14 Noroeste 27 Oeste 0 -- -- 50
2019-06-09 02:00:00 15.8 20 Noroeste 30 Noroeste 0 -- -- 48
2019-06-09 01:00:00 17.3 16 Noroeste 32 Noroeste 0 -- -- 48
2019-06-09 00:00:00 19.1 17 Noroeste 34 Noroeste 0 -- -- 45
2019-06-08 23:00:00 21.4 13 Noroeste 27 Noroeste 0 -- -- 32
2019-06-08 22:00:00 23.3 13 Noroeste 30 Norte 0 -- -- 28
2019-06-08 21:00:00 25.2 15 Norte 26 Norte 0 -- -- 22
2019-06-08 20:00:00 26.9 17 Norte 32 Norte 0 -- -- 20
2019-06-08 19:00:00 27.2 19 Norte 30 Noroeste 0 -- -- 22
2019-06-08 18:00:00 27.7 9 Norte 26 Noroeste 0 -- -- 22
2019-06-08 17:00:00 27.4 8 Noroeste 23 Oeste 0 -- -- 22
2019-06-08 16:00:00 27 5 Este 25 Oeste 0 -- -- 22
2019-06-08 15:00:00 25.8 8 Nordeste 25 Oeste 0 -- -- 24
2019-06-08 14:00:00 25.7 7 Noroeste 15 Norte 0 -- -- 26
2019-06-08 13:00:00 23.4 6 Noroeste 14 Nordeste 0 -- -- 29
2019-06-08 12:00:00 22.1 8 Nordeste 17 Nordeste 0 -- -- 32
2019-06-08 11:00:00 19.8 6 Noroeste 12 Norte 0 -- -- 39
2019-06-08 10:00:00 16.9 6 Noroeste 11 Norte 0 -- -- 48
2019-06-08 09:00:00 14.5 6 Noroeste 11 Noroeste 0 -- -- 56
2019-06-08 08:00:00 11.7 3 Noroeste 12 Noroeste 0 -- -- 64
2019-06-08 07:00:00 10.2 6 Noroeste 11 Noroeste 0 -- -- 68
2019-06-08 06:00:00 11.4 8 Noroeste 12 Noroeste 0 -- -- 64
2019-06-08 05:00:00 11.8 5 Noroeste 13 Noroeste 0 -- -- 61
2019-06-08 04:00:00 12.8 10 Noroeste 15 Noroeste 0 -- -- 56
2019-06-08 03:00:00 13.8 10 Noroeste 15 Noroeste 0 -- -- 51
2019-06-08 02:00:00 14.6 11 Noroeste 15 Noroeste 0 -- -- 49
2019-06-08 01:00:00 15.6 10 Noroeste 16 Noroeste 0 -- -- 44
2019-06-08 00:00:00 16.3 8 Noroeste 11 Noroeste 0 -- -- 39
2019-06-07 23:00:00 17.7 9 Noroeste 13 Norte 0 -- -- 36
2019-06-07 22:00:00 19.5 9 Norte 20 Norte 0 -- -- 33
2019-06-07 21:00:00 21.2 9 Noroeste 19 Norte 0 -- -- 30
2019-06-07 20:00:00 22.3 6 Nordeste 21 Norte 0 -- -- 28
2019-06-07 19:00:00 22.8 10 Norte 23 Noroeste 0 -- -- 28
2019-06-07 18:00:00 22.4 12 Norte 30 Norte 0 -- -- 28
2019-06-07 17:00:00 22 12 Norte 31 Oeste 0 -- -- 30
2019-06-07 16:00:00 20.9 17 Norte 29 Norte 0 -- -- 33
2019-06-07 15:00:00 20.6 12 Nordeste 27 Noroeste 0 -- -- 34
2019-06-07 14:00:00 18.9 12 Norte 31 Nordeste 0 -- -- 40
2019-06-07 13:00:00 18.2 16 Norte 39 Norte 0 -- -- 41
2019-06-07 12:00:00 16.6 14 Norte 27 Nordeste 0 -- -- 46
2019-06-07 11:00:00 15.4 16 Norte 31 Norte 0 -- -- 55
2019-06-07 10:00:00 13.9 17 Norte 28 Noroeste 0 -- -- 68
2019-06-07 09:00:00 12.5 17 Noroeste 30 Noroeste 0 -- -- 81
2019-06-07 08:00:00 11.5 15 Noroeste 23 Noroeste 0 -- -- 87
2019-06-07 07:00:00 10.3 8 Noroeste 17 Noroeste 0 -- -- 91
2019-06-07 06:00:00 10.8 12 Noroeste 18 Noroeste 0 -- -- 91
2019-06-07 05:00:00 11.7 14 Noroeste 24 Noroeste 0 -- -- 86
2019-06-07 04:00:00 12.1 12 Noroeste 21 Noroeste 0 -- -- 89
2019-06-07 03:00:00 11.6 13 Noroeste 27 Noroeste 0 -- -- 89
2019-06-07 02:00:00 11.4 19 Noroeste 40 Noroeste 0 -- -- 91
2019-06-07 01:00:00 14.4 26 Noroeste 48 Noroeste 0 -- -- 84
2019-06-07 00:00:00 17.2 29 Oeste 40 Oeste 0 -- -- 63
2019-06-06 23:00:00 18.2 22 Oeste 37 Oeste 0 -- -- 56
2019-06-06 22:00:00 19.3 21 Oeste 43 Oeste 0 -- -- 50
2019-06-06 21:00:00 20.7 27 Oeste 44 Oeste 0 -- -- 43
2019-06-06 20:00:00 22.9 21 Noroeste 41 Oeste 0 -- -- 37
2019-06-06 19:00:00 23.9 19 Oeste 40 Oeste 0 -- -- 34
2019-06-06 18:00:00 24.2 22 Oeste 49 Oeste 0 -- -- 31
2019-06-06 17:00:00 24.7 20 Oeste 41 Oeste 0 -- -- 28
2019-06-06 16:00:00 24.3 10 Noroeste 32 Oeste 0 -- -- 29
2019-06-06 15:00:00 22.8 10 Norte 25 Sur 0 -- -- 32
2019-06-06 14:00:00 20.8 14 Sudoeste 33 Oeste 0 -- -- 36
2019-06-06 13:00:00 19.4 7 Sudoeste 24 Noroeste 0 -- -- 38
2019-06-06 12:00:00 17.8 8 Noroeste 17 Noroeste 0 -- -- 45
2019-06-06 11:00:00 16.1 5 Noroeste 15 Norte 0 -- -- 51
2019-06-06 10:00:00 14.3 8 Norte 15 Norte 0 -- -- 55
2019-06-06 09:00:00 12.5 7 Noroeste 14 Noroeste 0 -- -- 63
2019-06-06 08:00:00 10.4 5 Oeste 14 Oeste 0 -- -- 69
2019-06-06 07:00:00 9 10 Oeste 13 Oeste 0 -- -- 71
2019-06-06 06:00:00 9.7 4 Noroeste 12 Oeste 0 -- -- 67
2019-06-06 05:00:00 10.1 6 Oeste 14 Oeste 0 -- -- 63
2019-06-06 04:00:00 11.3 7 Oeste 22 Noroeste 0 -- -- 58
2019-06-06 03:00:00 12.3 11 Noroeste 19 Noroeste 0 -- -- 57
2019-06-06 02:00:00 13.2 10 Noroeste 26 Noroeste 0 -- -- 53
2019-06-06 01:00:00 14.3 15 Noroeste 25 Noroeste 0 -- -- 48
2019-06-06 00:00:00 15.5 17 Noroeste 27 Noroeste 0 -- -- 45
2019-06-05 23:00:00 16.5 12 Noroeste 21 Norte 0 -- -- 40
2019-06-05 22:00:00 18.1 14 Norte 26 Norte 0 -- -- 36
2019-06-05 21:00:00 19.7 17 Noroeste 33 Noroeste 0 -- -- 33
2019-06-05 20:00:00 21 16 Norte 35 Noroeste 0 -- -- 32
2019-06-05 19:00:00 21.6 18 Norte 36 Norte 0 -- -- 32
2019-06-05 18:00:00 21.5 20 Norte 39 Noroeste 0 -- -- 32
2019-06-05 17:00:00 21.7 19 Norte 37 Norte 0 -- -- 32
2019-06-05 16:00:00 21.1 18 Noroeste 38 Noroeste 0 -- -- 33
2019-06-05 15:00:00 20.5 21 Norte 42 Norte 0 -- -- 35
2019-06-05 14:00:00 19.8 22 Norte 39 Noroeste 0 -- -- 39
2019-06-05 13:00:00 19.7 21 Noroeste 39 Noroeste 0 -- -- 41
2019-06-05 12:00:00 17.8 21 Norte 40 Noroeste 0 -- -- 46
2019-06-05 11:00:00 17 22 Noroeste 37 Norte 0 -- -- 49
2019-06-05 10:00:00 15.2 19 Noroeste 30 Noroeste 0 -- -- 62
2019-06-05 09:00:00 13.1 17 Noroeste 28 Noroeste 0 -- -- 75
2019-06-05 08:00:00 11.6 15 Noroeste 24 Noroeste 0 -- -- 83
2019-06-05 07:00:00 10.9 13 Noroeste 27 Noroeste 0 -- -- 84
2019-06-05 06:00:00 11.3 19 Noroeste 31 Noroeste 0 -- -- 81
2019-06-05 05:00:00 11.7 21 Noroeste 37 Noroeste 0 -- -- 77
2019-06-05 04:00:00 12.2 19 Noroeste 35 Noroeste 0 -- -- 76
2019-06-05 03:00:00 12.9 24 Noroeste 36 Noroeste 0 -- -- 68
2019-06-05 02:00:00 13.7 22 Noroeste 39 Noroeste 0 -- -- 63
2019-06-05 01:00:00 14.9 24 Noroeste 43 Noroeste 0 -- -- 57
2019-06-05 00:00:00 16 27 Noroeste 43 Norte 0 -- -- 53
2019-06-04 23:00:00 18.5 20 Noroeste 34 Noroeste 0 -- -- 57
2019-06-04 22:00:00 18.9 19 Noroeste 37 Noroeste 0 -- -- 60
2019-06-04 21:00:00 20 24 Noroeste 45 Noroeste 0 -- -- 54
2019-06-04 20:00:00 21.2 32 Noroeste 53 Norte 0 -- -- 54
2019-06-04 19:00:00 23.1 31 Noroeste 49 Norte 0 -- -- 52
2019-06-04 18:00:00 25.5 22 Noroeste 39 Noroeste 0 -- -- 41
2019-06-04 17:00:00 25.8 23 Noroeste 42 Noroeste 0 -- -- 41
2019-06-04 16:00:00 25.7 22 Noroeste 40 Noroeste 0 -- -- 43
2019-06-04 15:00:00 25.5 17 Noroeste 34 Noroeste 0 -- -- 44
2019-06-04 14:00:00 25 17 Noroeste 32 Noroeste 0 -- -- 46
2019-06-04 13:00:00 23.6 17 Noroeste 33 Noroeste 0 -- -- 48
2019-06-04 12:00:00 21.9 14 Noroeste 29 Noroeste 0 -- -- 51
2019-06-04 11:00:00 20.4 15 Noroeste 28 Noroeste 0 -- -- 56
2019-06-04 10:00:00 18.6 18 Noroeste 30 Noroeste 0 -- -- 64
2019-06-04 09:00:00 17.1 14 Noroeste 24 Noroeste 0 -- -- 73
2019-06-04 08:00:00 15.9 14 Noroeste 22 Noroeste 0 -- -- 81
2019-06-04 07:00:00 15.6 10 Noroeste 26 Noroeste 0 -- -- 81
2019-06-04 06:00:00 16.4 14 Noroeste 22 Noroeste 0 -- -- 82
2019-06-04 05:00:00 17.5 8 Noroeste 14 Noroeste 0 -- -- 76
2019-06-04 04:00:00 18.4 10 Noroeste 22 Noroeste 0 -- -- 73
2019-06-04 03:00:00 19.3 7 Noroeste 24 Noroeste 0 -- -- 68
2019-06-04 02:00:00 20.7 14 Norte 23 Norte 0 -- -- 64
2019-06-04 01:00:00 22.7 14 Noroeste 31 Noroeste 0 -- -- 58
2019-06-04 00:00:00 24.7 18 Noroeste 29 Noroeste 0 -- -- 46
2019-06-03 23:00:00 26.4 12 Noroeste 33 Noroeste 0 -- -- 31
2019-06-03 22:00:00 28.1 18 Noroeste 39 Noroeste 0 -- -- 26
2019-06-03 21:00:00 30.2 19 Noroeste 35 Noroeste 0 -- -- 22
2019-06-03 20:00:00 32.6 21 Noroeste 39 Oeste 0 -- -- 18
2019-06-03 19:00:00 33.9 20 Noroeste 36 Oeste 0 -- -- 17
2019-06-03 18:00:00 34.1 19 Oeste 40 Noroeste 0 -- -- 16
2019-06-03 17:00:00 34.9 18 Noroeste 39 Noroeste 0 -- -- 16
2019-06-03 16:00:00 33.7 12 Norte 34 Oeste 0 -- -- 17
2019-06-03 15:00:00 33.8 17 Noroeste 32 Noroeste 0 -- -- 17
2019-06-03 14:00:00 32.5 11 Noroeste 26 Noroeste 0 -- -- 17
2019-06-03 13:00:00 30.8 9 Oeste 18 Oeste 0 -- -- 20
2019-06-03 12:00:00 28.8 5 Oeste 14 Noroeste 0 -- -- 23
2019-06-03 11:00:00 26.4 5 Noroeste 9 Noroeste 0 -- -- 29
2019-06-03 10:00:00 23.8 5 Noroeste 10 Oeste 0 -- -- 36
2019-06-03 09:00:00 21.1 6 Oeste 9 Oeste 0 -- -- 41
2019-06-03 08:00:00 17.8 7 Oeste 11 Oeste 0 -- -- 49
2019-06-03 07:00:00 17 9 Sudoeste 12 Oeste 0 -- -- 48
2019-06-03 06:00:00 18.9 9 Noroeste 13 Noroeste 0 -- -- 43
2019-06-03 05:00:00 20.3 11 Noroeste 15 Noroeste 0 -- -- 40
2019-06-03 04:00:00 21.4 8 Noroeste 13 Noroeste 0 -- -- 38
2019-06-03 03:00:00 22.9 7 Noroeste 19 Noroeste 0 -- -- 35
2019-06-03 02:00:00 24.1 12 Noroeste 18 Noroeste 0 -- -- 33
2019-06-03 01:00:00 25.1 8 Noroeste 15 Noroeste 0 -- -- 31
2019-06-03 00:00:00 26.4 9 Noroeste 20 Noroeste 0 -- -- 26
2019-06-02 23:00:00 27.5 13 Noroeste 28 Norte 0 -- -- 25
2019-06-02 22:00:00 29.4 19 Norte 37 Norte 0 -- -- 24
2019-06-02 21:00:00 32.5 8 Norte 26 Noroeste 0 -- -- 21
2019-06-02 20:00:00 33.7 15 Norte 29 Norte 0 -- -- 21
2019-06-02 19:00:00 34.7 15 Norte 28 Noroeste 0 -- -- 21
2019-06-02 18:00:00 35.1 18 Noroeste 31 Noroeste 0 -- -- 20
2019-06-02 17:00:00 34.5 8 Norte 25 Norte 0 -- -- 20
2019-06-02 16:00:00 35 9 Norte 19 Norte 0 -- -- 21
2019-06-02 15:00:00 33.5 5 Oeste 21 Norte 0 -- -- 23
2019-06-02 14:00:00 32.6 4 Sudoeste 15 Norte 0 -- -- 25
2019-06-02 13:00:00 31.2 5 Este 13 Noroeste 0 -- -- 27
2019-06-02 12:00:00 29.3 6 Nordeste 12 Nordeste 0 -- -- 30
2019-06-02 11:00:00 27.8 4 Oeste 9 Oeste 0 -- -- 31
2019-06-02 10:00:00 25.1 3 Oeste 8 Sur 0 -- -- 36
2019-06-02 09:00:00 21.3 6 Sur 11 Sur 0 -- -- 40
2019-06-02 08:00:00 18.4 7 Sudeste 13 Sur 0 -- -- 43
2019-06-02 07:00:00 17.6 9 Sur 18 Sur 0 -- -- 43
2019-06-02 06:00:00 18.6 13 Sur 20 Sudoeste 0 -- -- 40
2019-06-02 05:00:00 19.7 14 Sur 19 Sur 0 -- -- 37
2019-06-02 04:00:00 19.9 10 Sur 17 Sur 0 -- -- 35
2019-06-02 03:00:00 21.8 9 Sur 18 Norte 0 -- -- 33
2019-06-02 02:00:00 24.4 8 Noroeste 17 Oeste 0 -- -- 30
2019-06-02 01:00:00 24.8 13 Oeste 21 Sudoeste 0 -- -- 27
2019-06-02 00:00:00 26.5 6 Este 11 Este 0 -- -- 23
2019-06-01 23:00:00 27.8 10 Nordeste 12 Nordeste 0 -- -- 21
2019-06-01 22:00:00 29.3 9 Nordeste 16 Este 0 -- -- 20
2019-06-01 21:00:00 32.1 12 Este 24 Este 0 -- -- 18
2019-06-01 20:00:00 33.7 14 Nordeste 23 Este 0 -- -- 17
2019-06-01 19:00:00 34.3 14 Nordeste 28 Este 0 -- -- 18
2019-06-01 18:00:00 34.6 15 Este 29 Este 0 -- -- 18
2019-06-01 17:00:00 34.8 13 Nordeste 26 Nordeste 0 -- -- 17
2019-06-01 16:00:00 33.9 15 Nordeste 28 Nordeste 0 -- -- 20
2019-06-01 15:00:00 33.3 4 Sudeste 22 Sudeste 0 -- -- 21
2019-06-01 14:00:00 32.1 8 Nordeste 22 Este 0 -- -- 23
2019-06-01 13:00:00 30.8 9 Este 21 Este 0 -- -- 24
2019-06-01 12:00:00 29.5 6 Sur 14 Sudeste 0 -- -- 27
2019-06-01 11:00:00 27 7 Sudeste 14 Sur 0 -- -- 30
2019-06-01 10:00:00 24.5 8 Sur 16 Sur 0 -- -- 34
2019-06-01 09:00:00 21.4 13 Sur 19 Sur 0 -- -- 39
2019-06-01 08:00:00 18.3 12 Sur 19 Sur 0 -- -- 42
2019-06-01 07:00:00 17.6 14 Sur 21 Sur 0 -- -- 41
2019-06-01 06:00:00 18.2 12 Sur 18 Sur 0 -- -- 39
2019-06-01 05:00:00 19.2 14 Sur 19 Sur 0 -- -- 37
2019-06-01 04:00:00 20.2 13 Sur 23 Sur 0 -- -- 34
2019-06-01 03:00:00 21.1 16 Sur 23 Sur 0 -- -- 33
2019-06-01 02:00:00 21.7 16 Sur 19 Sur 0 -- -- 33
2019-06-01 01:00:00 23.1 11 Sur 19 Sudoeste 0 -- -- 30
2019-06-01 00:00:00 26.1 13 Sur 26 Sudoeste 0 -- -- 25
2019-05-31 23:00:00 27.6 9 Este 12 Este 0 -- -- 23
2019-05-31 22:00:00 28.5 9 Nordeste 14 Este 0 -- -- 22
2019-05-31 21:00:00 31.6 10 Nordeste 27 Nordeste 0 -- -- 20
2019-05-31 20:00:00 33 18 Nordeste 30 Nordeste 0 -- -- 19
2019-05-31 19:00:00 33.6 17 Nordeste 38 Nordeste 0 -- -- 19
2019-05-31 18:00:00 34.1 19 Este 36 Este 0 -- -- 19
2019-05-31 17:00:00 33.8 21 Nordeste 47 Nordeste 0 -- -- 20
2019-05-31 16:00:00 33.3 19 Este 46 Este 0 -- -- 20
2019-05-31 15:00:00 32.2 15 Este 27 Nordeste 0 -- -- 24
2019-05-31 14:00:00 31.2 12 Este 28 Nordeste 0 -- -- 26
2019-05-31 13:00:00 29.4 11 Este 24 Este 0 -- -- 30
2019-05-31 12:00:00 28.1 10 Este 21 Nordeste 0 -- -- 30
2019-05-31 11:00:00 26 8 Este 14 Sudeste 0 -- -- 31
2019-05-31 10:00:00 23.5 6 Este 14 Este 0 -- -- 35
2019-05-31 09:00:00 20.3 7 Sudeste 13 Este 0 -- -- 41
2019-05-31 08:00:00 16.8 8 Sudeste 13 Sudeste 0 -- -- 47
2019-05-31 07:00:00 15.7 8 Sur 14 Sudoeste 0 -- -- 51
2019-05-31 06:00:00 16.2 8 Sur 9 Sur 0 -- -- 51
2019-05-31 05:00:00 17.6 6 Sudeste 17 Sur 0 -- -- 46
2019-05-31 04:00:00 19.2 14 Sur 21 Sur 0 -- -- 44
2019-05-31 03:00:00 20.3 14 Sur 19 Sur 0 -- -- 43
2019-05-31 02:00:00 21.1 14 Sur 22 Sur 0 -- -- 37
2019-05-31 01:00:00 22.2 12 Sudoeste 23 Sudoeste 0 -- -- 29
2019-05-31 00:00:00 25.1 7 Sudeste 9 Este 0 -- -- 26
2019-05-30 23:00:00 26.2 9 Este 11 Este 0 -- -- 25
2019-05-30 22:00:00 27.5 9 Este 20 Nordeste 0 -- -- 23
2019-05-30 21:00:00 30.3 13 Este 30 Nordeste 0 -- -- 19
2019-05-30 20:00:00 31.9 17 Nordeste 32 Nordeste 0 -- -- 18
2019-05-30 19:00:00 32.4 18 Nordeste 33 Nordeste 0 -- -- 19
2019-05-30 18:00:00 32.8 18 Nordeste 37 Nordeste 0 -- -- 20
2019-05-30 17:00:00 32.7 15 Este 33 Nordeste 0 -- -- 19
2019-05-30 16:00:00 32 17 Este 36 Este 0 -- -- 18
2019-05-30 15:00:00 31.5 18 Este 35 Este 0 -- -- 18
2019-05-30 14:00:00 30.7 18 Este 32 Este 0 -- -- 20
2019-05-30 13:00:00 29.5 17 Este 34 Este 0 -- -- 20
2019-05-30 12:00:00 27.5 18 Este 31 Este 0 -- -- 24
2019-05-30 11:00:00 25.6 14 Este 25 Este 0 -- -- 29
2019-05-30 10:00:00 23.6 10 Este 17 Este 0 -- -- 34
2019-05-30 09:00:00 21.5 9 Este 19 Sudeste 0 -- -- 34
2019-05-30 08:00:00 18.8 10 Sudeste 19 Sudeste 0 -- -- 39
2019-05-30 07:00:00 16.6 12 Este 14 Sudeste 0 -- -- 45
2019-05-30 06:00:00 17.1 9 Este 10 Este 0 -- -- 40
2019-05-30 05:00:00 17.3 8 Sudeste 12 Este 0 -- -- 45
2019-05-30 04:00:00 19.4 9 Este 18 Este 0 -- -- 35
2019-05-30 03:00:00 19.6 10 Este 12 Este 0 -- -- 33
2019-05-30 02:00:00 20.6 7 Este 10 Sudeste 0 -- -- 30
2019-05-30 01:00:00 21.7 7 Sudeste 10 Este 0 -- -- 30
2019-05-30 00:00:00 23.2 9 Este 17 Este 0 -- -- 29
2019-05-29 23:00:00 23.7 10 Este 13 Este 0 -- -- 27
2019-05-29 22:00:00 25.6 8 Este 14 Este 0 -- -- 25
2019-05-29 21:00:00 28.9 12 Este 27 Sudeste 0 -- -- 21
2019-05-29 20:00:00 30.2 14 Este 28 Este 0 -- -- 20
2019-05-29 19:00:00 30.4 21 Este 41 Este 0 -- -- 22
2019-05-29 18:00:00 30.4 16 Este 32 Nordeste 0 -- -- 22
2019-05-29 17:00:00 29.7 19 Este 34 Nordeste 0 -- -- 22
2019-05-29 16:00:00 29.4 20 Este 36 Este 0 -- -- 22
2019-05-29 15:00:00 28.1 21 Este 40 Este 0 -- -- 23
2019-05-29 14:00:00 27.5 22 Este 37 Este 0 -- -- 24
2019-05-29 13:00:00 26.6 19 Este 34 Este 0 -- -- 26
2019-05-29 12:00:00 25.3 21 Este 36 Este 0 -- -- 26
2019-05-29 11:00:00 23.9 19 Sudeste 38 Sudeste 0 -- -- 29
2019-05-29 10:00:00 22.2 20 Sudeste 37 Sudeste 0 -- -- 32
2019-05-29 09:00:00 20.4 14 Sudeste 23 Sudeste 0 -- -- 35
2019-05-29 08:00:00 18.8 10 Sudeste 19 Sudeste 0 -- -- 37
2019-05-29 07:00:00 18.3 13 Sudeste 24 Este 0 -- -- 35
2019-05-29 06:00:00 18.5 12 Sudeste 21 Este 0 -- -- 33
2019-05-29 05:00:00 18.8 10 Este 19 Este 0 -- -- 35
2019-05-29 04:00:00 18.7 10 Sudeste 16 Este 0 -- -- 35
2019-05-29 03:00:00 20 12 Este 17 Este 0 -- -- 34
2019-05-29 02:00:00 19.6 10 Nordeste 14 Nordeste 0 -- -- 32
2019-05-29 01:00:00 20.8 10 Nordeste 14 Nordeste 0 -- -- 31
2019-05-29 00:00:00 23.1 12 Nordeste 23 Nordeste 0 -- -- 27
2019-05-28 23:00:00 24.2 14 Nordeste 21 Nordeste 0 -- -- 25
2019-05-28 22:00:00 26.2 14 Nordeste 26 Nordeste 0 -- -- 21
2019-05-28 21:00:00 28.5 18 Nordeste 31 Nordeste 0 -- -- 18
2019-05-28 20:00:00 30.1 21 Nordeste 36 Nordeste 0 -- -- 15
2019-05-28 19:00:00 31.3 18 Nordeste 36 Nordeste 0 -- -- 18
2019-05-28 18:00:00 31.8 19 Nordeste 44 Norte 0 -- -- 24
2019-05-28 17:00:00 32.2 15 Nordeste 33 Noroeste 0 -- -- 24
2019-05-28 16:00:00 31.4 6 Oeste 27 Este 0 -- -- 27
2019-05-28 15:00:00 30.4 14 Nordeste 29 Nordeste 0 -- -- 27
2019-05-28 14:00:00 29.1 11 Este 25 Este 0 -- -- 33
2019-05-28 13:00:00 27.9 11 Este 20 Nordeste 0 -- -- 36
2019-05-28 12:00:00 25.6 9 Nordeste 16 Norte 0 -- -- 43
2019-05-28 11:00:00 22.8 6 Norte 10 Nordeste 0 -- -- 51
2019-05-28 10:00:00 21 4 Norte 13 Noroeste 0 -- -- 56
2019-05-28 09:00:00 18.9 10 Noroeste 18 Noroeste 0 -- -- 64
2019-05-28 08:00:00 16.5 6 Noroeste 10 Noroeste 0 -- -- 73
2019-05-28 07:00:00 16.1 6 Noroeste 16 Noroeste 0 -- -- 75
2019-05-28 06:00:00 16.4 8 Noroeste 17 Noroeste 0 -- -- 75
2019-05-28 05:00:00 16.9 13 Noroeste 17 Noroeste 0 -- -- 73
2019-05-28 04:00:00 17.3 8 Noroeste 21 Noroeste 0 -- -- 71
2019-05-28 03:00:00 18.2 15 Noroeste 27 Noroeste 0 -- -- 68
2019-05-28 02:00:00 19.4 18 Noroeste 27 Noroeste 0 -- -- 65
2019-05-28 01:00:00 20.7 15 Noroeste 31 Noroeste 0 -- -- 61
2019-05-28 00:00:00 22.4 19 Noroeste 32 Noroeste 0 -- -- 56